createdAt,value
2022-09-04T00:01:10.561Z,13.15
2022-09-04T00:03:48.820Z,13.12
2022-09-04T00:06:22.425Z,13.11
2022-09-04T00:09:03.922Z,13.10
2022-09-04T00:11:44.814Z,13.05
2022-09-04T00:14:18.991Z,13.03
2022-09-04T00:16:55.015Z,12.96
2022-09-04T00:19:32.204Z,12.94
2022-09-04T00:22:01.569Z,12.92
2022-09-04T00:24:33.565Z,12.89
2022-09-04T00:27:09.382Z,12.89
2022-09-04T00:29:49.151Z,12.89
2022-09-04T00:32:27.116Z,12.91
2022-09-04T00:35:06.228Z,12.87
2022-09-04T00:37:39.332Z,12.81
2022-09-04T00:40:15.932Z,12.76
2022-09-04T00:43:19.086Z,12.75
2022-09-04T00:46:08.228Z,12.76
2022-09-04T00:49:06.618Z,12.79
2022-09-04T00:51:46.122Z,12.76
2022-09-04T00:54:40.408Z,12.68
2022-09-04T00:57:46.404Z,12.66
2022-09-04T01:00:16.620Z,12.62
2022-09-04T01:03:17.695Z,12.63
2022-09-04T01:06:05.244Z,12.55
2022-09-04T01:08:56.637Z,12.52
2022-09-04T01:11:38.425Z,12.53
2022-09-04T01:14:15.994Z,12.53
2022-09-04T01:16:50.365Z,12.47
2022-09-04T01:19:41.666Z,12.38
2022-09-04T01:22:30.784Z,12.30
2022-09-04T01:25:09.892Z,12.29
2022-09-04T01:27:50.092Z,12.29
2022-09-04T01:30:20.472Z,12.27
2022-09-04T01:33:02.887Z,12.29
2022-09-04T01:35:43.706Z,12.27
2022-09-04T01:38:19.414Z,12.26
2022-09-04T01:40:54.377Z,12.25
2022-09-04T01:43:24.672Z,12.18
2022-09-04T01:46:28.478Z,12.14
2022-09-04T01:49:04.801Z,12.09
2022-09-04T01:51:41.300Z,12.07
2022-09-04T01:54:32.608Z,12.07
2022-09-04T01:57:13.176Z,12.10
2022-09-04T01:59:54.558Z,12.12
2022-09-04T02:02:30.191Z,12.15
2022-09-04T02:05:08.626Z,12.16
2022-09-04T02:07:46.906Z,12.18
2022-09-04T02:10:28.460Z,12.19
2022-09-04T02:13:15.170Z,12.18
2022-09-04T02:15:58.710Z,12.19
2022-09-04T02:18:43.460Z,12.21
2022-09-04T02:21:20.809Z,12.21
2022-09-04T02:24:00.660Z,12.23
2022-09-04T02:26:34.875Z,12.20
2022-09-04T02:29:10.304Z,12.18
2022-09-04T02:31:49.494Z,12.20
2022-09-04T02:34:26.113Z,12.20
2022-09-04T02:37:04.669Z,12.20
2022-09-04T02:39:46.154Z,12.20
2022-09-04T02:42:25.314Z,12.20
2022-09-04T02:45:09.616Z,12.21
2022-09-04T02:47:51.867Z,12.19
2022-09-04T02:50:38.998Z,12.17
2022-09-04T02:53:25.476Z,12.19
2022-09-04T02:56:11.704Z,12.19
2022-09-04T02:58:51.306Z,12.19
2022-09-04T03:01:31.910Z,12.20
2022-09-04T03:04:10.389Z,12.21
2022-09-04T03:06:52.571Z,12.22
2022-09-04T03:09:29.634Z,12.24
2022-09-04T03:12:05.087Z,12.25
2022-09-04T03:14:40.304Z,12.25
2022-09-04T03:17:17.656Z,12.22
2022-09-04T03:19:54.657Z,12.20
2022-09-04T03:22:28.359Z,12.20
2022-09-04T03:25:07.356Z,12.18
2022-09-04T03:27:36.666Z,12.14
2022-09-04T03:30:10.140Z,12.15
2022-09-04T03:32:48.334Z,12.14
2022-09-04T03:35:27.423Z,12.13
2022-09-04T03:38:07.030Z,12.13
2022-09-04T03:40:40.025Z,12.13
2022-09-04T03:43:22.784Z,12.12
2022-09-04T03:46:00.388Z,12.10
2022-09-04T03:48:46.053Z,12.10
2022-09-04T03:51:25.828Z,12.09
2022-09-04T03:54:07.293Z,12.10
2022-09-04T03:56:57.297Z,12.08
2022-09-04T03:59:43.864Z,12.07
2022-09-04T04:02:25.010Z,12.05
2022-09-04T04:05:18.793Z,12.04
2022-09-04T04:08:12.934Z,12.04
2022-09-04T04:10:52.859Z,12.04
2022-09-04T04:13:37.225Z,12.05
2022-09-04T04:16:25.476Z,12.05
2022-09-04T04:19:23.568Z,12.07
2022-09-04T04:22:05.262Z,12.08
2022-09-04T04:24:50.012Z,12.08
2022-09-04T04:27:49.858Z,12.10
2022-09-04T04:30:19.316Z,12.10
2022-09-04T04:33:11.164Z,12.14
2022-09-04T04:35:45.493Z,12.15
2022-09-04T04:38:28.653Z,12.15
2022-09-04T04:41:21.983Z,12.16
2022-09-04T04:44:07.874Z,12.18
2022-09-04T04:46:52.314Z,12.22
2022-09-04T04:49:43.644Z,12.23
2022-09-04T04:52:26.166Z,12.26
2022-09-04T04:55:17.314Z,12.30
2022-09-04T04:58:15.598Z,12.34
2022-09-04T05:00:46.956Z,12.35
2022-09-04T05:03:22.733Z,12.39
2022-09-04T05:06:02.402Z,12.42
2022-09-04T05:08:41.923Z,12.48
2022-09-04T05:11:24.110Z,12.54
2022-09-04T05:14:05.342Z,12.62
2022-09-04T05:16:51.054Z,12.64
2022-09-04T05:19:30.630Z,12.72
2022-09-04T05:22:04.009Z,12.73
2022-09-04T05:24:38.172Z,12.77
2022-09-04T05:27:18.048Z,12.84
2022-09-04T05:29:58.167Z,12.90
2022-09-04T05:32:32.682Z,12.96
2022-09-04T05:35:11.036Z,12.97
2022-09-04T05:37:44.182Z,12.98
2022-09-04T05:40:24.800Z,12.98
2022-09-04T05:43:08.856Z,13.03
2022-09-04T05:45:50.676Z,13.12
2022-09-04T05:48:26.377Z,13.17
2022-09-04T05:51:05.799Z,13.26
2022-09-04T05:54:02.630Z,13.22
2022-09-04T05:57:10.554Z,13.25
2022-09-04T05:59:54.477Z,13.27
2022-09-04T06:02:42.931Z,13.28
2022-09-04T06:05:21.457Z,13.35
2022-09-04T06:08:01.571Z,13.37
2022-09-04T06:10:46.946Z,13.46
2022-09-04T06:13:47.496Z,13.53
2022-09-04T06:16:30.553Z,13.60
2022-09-04T06:19:19.528Z,13.69
2022-09-04T06:22:10.685Z,13.77
2022-09-04T06:24:59.838Z,13.81
2022-09-04T06:27:52.385Z,13.77
2022-09-04T06:30:21.152Z,13.80
2022-09-04T06:33:06.618Z,13.85
2022-09-04T06:35:55.461Z,13.92
2022-09-04T06:38:37.978Z,13.96
2022-09-04T06:41:21.050Z,14.01
2022-09-04T06:43:57.778Z,14.08
2022-09-04T06:46:35.428Z,14.15
2022-09-04T06:49:13.435Z,14.19
2022-09-04T06:51:57.717Z,14.21
2022-09-04T06:54:39.275Z,14.23
2022-09-04T06:57:26.530Z,14.18
2022-09-04T07:00:06.180Z,14.13
2022-09-04T07:02:57.254Z,14.21
2022-09-04T07:05:31.061Z,14.30
2022-09-04T07:08:10.501Z,14.32
2022-09-04T07:10:44.834Z,14.32
2022-09-04T07:13:35.760Z,14.41
2022-09-04T07:16:16.768Z,14.49
2022-09-04T07:19:03.544Z,14.53
2022-09-04T07:21:37.793Z,14.59
2022-09-04T07:24:18.202Z,14.66
2022-09-04T07:26:57.390Z,14.73
2022-09-04T07:29:36.062Z,14.76
2022-09-04T07:32:09.549Z,14.78
2022-09-04T07:34:45.413Z,14.87
2022-09-04T07:37:28.025Z,14.97
2022-09-04T07:40:09.739Z,15.13
2022-09-04T07:42:45.917Z,15.26
2022-09-04T07:45:25.442Z,15.39
2022-09-04T07:48:04.257Z,15.57
2022-09-04T07:50:36.587Z,15.84
2022-09-04T07:53:21.026Z,16.19
2022-09-04T07:55:53.510Z,16.36
2022-09-04T07:58:49.643Z,16.57
2022-09-04T08:01:50.681Z,16.88
2022-09-04T08:04:44.187Z,16.82
2022-09-04T08:07:21.572Z,16.99
2022-09-04T08:10:12.687Z,17.36
2022-09-04T08:13:14.291Z,17.50
2022-09-04T08:15:46.500Z,17.51
2022-09-04T08:18:35.268Z,17.64
2022-09-04T08:21:16.687Z,17.69
2022-09-04T08:24:20.581Z,17.68
2022-09-04T08:27:04.202Z,17.80
2022-09-04T08:29:57.520Z,18.08
2022-09-04T08:32:48.890Z,18.32
2022-09-04T08:35:25.960Z,18.56
2022-09-04T08:38:14.658Z,19.07
2022-09-04T08:41:17.863Z,19.71
2022-09-04T08:44:21.541Z,20.15
2022-09-04T08:47:35.451Z,20.33
2022-09-04T08:50:25.795Z,20.20
2022-09-04T08:53:19.433Z,20.32
2022-09-04T08:56:20.613Z,20.49
2022-09-04T08:59:48.668Z,20.57
2022-09-04T09:03:04.645Z,20.69
2022-09-04T09:06:21.649Z,20.53
2022-09-04T09:09:34.500Z,20.54
2022-09-04T09:12:51.431Z,20.50
2022-09-04T09:15:48.906Z,20.42
2022-09-04T09:18:40.574Z,20.28
2022-09-04T09:21:13.825Z,20.21
2022-09-04T09:24:13.555Z,20.14
2022-09-04T09:26:53.817Z,20.02
2022-09-04T09:29:50.870Z,19.94
2022-09-04T09:32:54.307Z,19.77
2022-09-04T09:35:56.194Z,19.59
2022-09-04T09:38:48.865Z,19.46
2022-09-04T09:42:00.714Z,19.28
2022-09-04T09:45:22.551Z,19.06
2022-09-04T09:48:28.198Z,18.85
2022-09-04T09:51:50.250Z,18.61
2022-09-04T09:54:50.583Z,18.26
2022-09-04T09:58:03.519Z,18.06
2022-09-04T10:00:39.604Z,17.90
2022-09-04T10:04:07.128Z,17.81
2022-09-04T10:07:00.482Z,17.78
2022-09-04T10:10:09.072Z,17.85
2022-09-04T10:12:52.614Z,17.90
2022-09-04T10:15:45.546Z,18.19
2022-09-04T10:18:39.214Z,18.85
2022-09-04T10:21:46.532Z,19.35
2022-09-04T10:24:47.479Z,19.66
2022-09-04T10:27:44.174Z,19.76
2022-09-04T10:30:18.440Z,19.69
2022-09-04T10:33:26.684Z,19.46
2022-09-04T10:36:06.388Z,19.37
2022-09-04T10:39:02.659Z,19.28
2022-09-04T10:41:51.866Z,19.01
2022-09-04T10:44:58.649Z,18.60
2022-09-04T10:47:46.850Z,19.05
2022-09-04T10:50:28.797Z,19.55
2022-09-04T10:53:31.344Z,19.92
2022-09-04T10:56:09.358Z,20.19
2022-09-04T10:59:13.455Z,20.26
2022-09-04T11:02:02.945Z,19.99
2022-09-04T11:05:01.464Z,20.17
2022-09-04T11:07:59.040Z,21.09
2022-09-04T11:10:42.799Z,22.00
2022-09-04T11:13:56.428Z,22.83
2022-09-04T11:17:00.557Z,23.89
2022-09-04T11:20:04.913Z,24.76
2022-09-04T11:23:15.201Z,24.93
2022-09-04T11:26:24.073Z,24.58
2022-09-04T11:29:06.936Z,24.25
2022-09-04T11:32:02.002Z,23.53
2022-09-04T11:35:19.537Z,22.98
2022-09-04T11:38:18.340Z,22.30
2022-09-04T11:41:31.307Z,21.89
2022-09-04T11:44:51.774Z,21.93
2022-09-04T11:47:52.546Z,22.38
2022-09-04T11:50:30.045Z,22.50
2022-09-04T11:53:19.772Z,22.21
2022-09-04T11:56:12.901Z,22.03
2022-09-04T11:59:06.204Z,21.67
2022-09-04T12:01:57.060Z,21.50
2022-09-04T12:04:44.428Z,21.22
2022-09-04T12:07:19.961Z,20.92
2022-09-04T12:10:42.516Z,20.57
2022-09-04T12:13:44.145Z,20.33
2022-09-04T12:16:44.262Z,20.01
2022-09-04T12:19:44.803Z,19.87
2022-09-04T12:22:40.757Z,19.64
2022-09-04T12:25:47.797Z,19.50
2022-09-04T12:28:42.193Z,19.20
2022-09-04T12:31:37.196Z,19.19
2022-09-04T12:34:30.560Z,19.16
2022-09-04T12:37:27.659Z,19.05
2022-09-04T12:40:30.734Z,18.80
2022-09-04T12:43:21.157Z,18.72
2022-09-04T12:46:06.149Z,18.60
2022-09-04T12:48:43.948Z,18.53
2022-09-04T12:51:16.794Z,18.52
2022-09-04T12:54:11.074Z,18.50
2022-09-04T12:56:49.104Z,18.52
2022-09-04T12:59:49.236Z,18.48
2022-09-04T13:02:32.779Z,18.54
2022-09-04T13:05:15.565Z,18.59
2022-09-04T13:07:54.770Z,18.46
2022-09-04T13:10:33.156Z,18.29
2022-09-04T13:13:15.847Z,18.35
2022-09-04T13:15:54.525Z,18.20
2022-09-04T13:18:46.788Z,18.10
2022-09-04T13:21:28.327Z,17.92
2022-09-04T13:24:12.894Z,17.77
2022-09-04T13:26:57.238Z,17.78
2022-09-04T13:29:36.307Z,17.75
2022-09-04T13:32:35.464Z,17.66
2022-09-04T13:35:19.322Z,17.67
2022-09-04T13:38:16.342Z,17.59
2022-09-04T13:41:05.770Z,17.57
2022-09-04T13:44:00.809Z,17.35
2022-09-04T13:46:33.545Z,17.31
2022-09-04T13:49:05.577Z,17.35
2022-09-04T13:51:43.227Z,17.36
2022-09-04T13:54:22.909Z,17.39
2022-09-04T13:56:59.643Z,17.42
2022-09-04T13:59:28.816Z,17.43
2022-09-04T14:02:04.740Z,17.46
2022-09-04T14:04:38.120Z,17.38
2022-09-04T14:07:17.440Z,17.35
2022-09-04T14:09:50.535Z,17.32
2022-09-04T14:12:54.075Z,17.21
2022-09-04T14:15:49.358Z,17.12
2022-09-04T14:18:31.861Z,17.05
2022-09-04T14:21:05.801Z,17.09
2022-09-04T14:23:47.648Z,16.98
2022-09-04T14:26:25.786Z,16.97
2022-09-04T14:29:02.910Z,17.00
2022-09-04T14:31:40.389Z,16.99
2022-09-04T14:34:19.161Z,16.96
2022-09-04T14:36:54.604Z,16.95
2022-09-04T14:39:29.226Z,16.91
2022-09-04T14:42:17.729Z,16.90
2022-09-04T14:45:02.997Z,16.93
2022-09-04T14:47:42.404Z,16.95
2022-09-04T14:50:14.081Z,16.99
2022-09-04T14:52:45.441Z,16.94
2022-09-04T14:55:19.272Z,16.96
2022-09-04T14:57:52.314Z,16.98
2022-09-04T15:00:22.771Z,16.98
2022-09-04T15:03:02.443Z,16.92
2022-09-04T15:05:35.651Z,16.94
2022-09-04T15:08:07.721Z,16.94
2022-09-04T15:10:50.623Z,16.97
2022-09-04T15:13:39.269Z,16.96
2022-09-04T15:16:20.736Z,16.97
2022-09-04T15:18:59.141Z,16.95
2022-09-04T15:21:37.948Z,16.97
2022-09-04T15:24:16.402Z,16.77
2022-09-04T15:26:55.840Z,16.86
2022-09-04T15:29:32.528Z,16.85
2022-09-04T15:32:03.824Z,16.71
2022-09-04T15:34:35.745Z,16.73
2022-09-04T15:37:13.110Z,16.69
2022-09-04T15:39:50.602Z,16.69
2022-09-04T15:42:37.386Z,16.61
2022-09-04T15:45:12.970Z,16.58
2022-09-04T15:47:56.169Z,16.57
2022-09-04T15:50:28.785Z,16.55
2022-09-04T15:53:12.108Z,16.55
2022-09-04T15:55:46.002Z,16.55
2022-09-04T15:58:19.886Z,16.52
2022-09-04T16:01:16.736Z,16.53
2022-09-04T16:04:01.501Z,16.51
2022-09-04T16:06:32.653Z,16.49
2022-09-04T16:09:06.820Z,16.45
2022-09-04T16:11:38.941Z,16.44
2022-09-04T16:14:12.859Z,16.40
2022-09-04T16:16:45.532Z,16.35
2022-09-04T16:19:23.925Z,16.32
2022-09-04T16:22:04.959Z,16.31
2022-09-04T16:24:37.025Z,16.32
2022-09-04T16:27:08.869Z,16.28
2022-09-04T16:29:45.776Z,16.24
2022-09-04T16:32:21.799Z,16.23
2022-09-04T16:34:55.628Z,16.22
2022-09-04T16:37:31.806Z,16.21
2022-09-04T18:52:30.525Z,14.70
2022-09-04T18:55:08.337Z,14.72
2022-09-04T18:57:48.994Z,14.73
2022-09-04T19:00:27.136Z,14.74
2022-09-04T19:03:11.883Z,14.73
2022-09-04T19:05:45.464Z,14.72
2022-09-04T19:08:21.960Z,14.74
2022-09-04T19:10:55.305Z,14.71
2022-09-04T19:13:29.655Z,14.69
2022-09-04T19:16:07.611Z,14.68
2022-09-04T19:18:47.442Z,14.65
2022-09-04T19:21:24.223Z,14.62
2022-09-04T19:23:59.676Z,14.60
2022-09-04T19:26:37.535Z,14.61
2022-09-04T19:29:13.479Z,14.56
2022-09-04T19:31:45.758Z,14.46
2022-09-04T19:34:21.082Z,14.36
2022-09-04T19:36:55.600Z,14.32
2022-09-04T19:45:59.533Z,14.24
2022-09-04T19:46:05.612Z,14.29
2022-09-04T19:46:15.633Z,14.16
2022-09-04T19:48:29.050Z,14.11
2022-09-04T19:53:31.647Z,14.06
2022-09-04T19:53:57.748Z,14.01
2022-09-04T19:57:31.643Z,13.97
2022-09-04T19:59:31.773Z,13.86
2022-09-04T20:02:03.752Z,13.79
2022-09-04T20:04:41.360Z,13.78
2022-09-04T20:07:14.009Z,13.76
2022-09-04T20:09:48.360Z,13.74
2022-09-04T20:12:26.703Z,13.75
2022-09-04T20:15:03.890Z,13.75
2022-09-04T20:17:53.037Z,13.77
2022-09-04T20:20:24.617Z,13.72
2022-09-04T20:22:59.367Z,13.69
2022-09-04T20:25:41.783Z,13.67
2022-09-04T20:28:23.259Z,13.63
2022-09-04T20:31:35.464Z,13.57
2022-09-04T20:34:03.857Z,13.51
2022-09-04T20:36:48.924Z,13.40
2022-09-04T20:39:25.031Z,13.38
2022-09-04T20:42:01.720Z,13.35
2022-09-04T20:44:47.608Z,13.29
2022-09-04T20:52:52.412Z,13.19
2022-09-04T20:52:55.657Z,13.12
2022-09-04T20:53:32.700Z,13.08
2022-09-04T20:56:08.022Z,13.03
2022-09-04T21:03:13.511Z,12.97
2022-09-04T21:03:19.966Z,12.83
2022-09-04T21:04:54.121Z,12.75
2022-09-04T21:07:29.886Z,12.67
2022-09-04T21:10:12.449Z,12.67
2022-09-04T21:12:47.130Z,12.63
2022-09-04T21:15:27.424Z,12.57
2022-09-04T21:18:15.353Z,12.59
2022-09-04T21:21:03.435Z,12.57
2022-09-04T21:24:13.287Z,12.52
2022-09-04T21:27:03.154Z,12.49
2022-09-04T21:29:53.278Z,12.48
2022-09-04T21:32:42.991Z,12.49
2022-09-04T21:35:18.131Z,12.45
2022-09-04T21:37:52.875Z,12.43
2022-09-04T21:40:59.079Z,12.34
2022-09-04T21:43:48.044Z,12.35
2022-09-04T21:46:38.481Z,12.35
2022-09-04T21:49:32.596Z,12.35
2022-09-04T21:52:25.655Z,12.35
2022-09-04T21:57:31.476Z,12.34
2022-09-04T22:02:36.082Z,12.28
2022-09-04T22:02:43.814Z,12.34
2022-09-04T22:04:42.291Z,12.22
2022-09-04T22:10:27.526Z,12.18
2022-09-04T22:13:43.092Z,12.17
2022-09-04T22:13:50.186Z,12.11
2022-09-04T22:16:43.654Z,12.11
2022-09-04T22:19:41.836Z,12.07
2022-09-04T22:22:35.006Z,12.03
2022-09-04T22:25:33.336Z,12.00
2022-09-04T22:28:20.450Z,11.99
2022-09-04T22:31:12.136Z,12.00
2022-09-04T22:34:17.744Z,12.01
2022-09-04T22:37:18.398Z,12.05
2022-09-04T22:40:12.693Z,12.06
2022-09-04T22:42:49.217Z,12.07
2022-09-04T22:45:47.860Z,12.10
2022-09-04T22:48:47.325Z,12.12
2022-09-04T22:51:45.766Z,12.09
2022-09-04T22:54:33.526Z,12.08
2022-09-04T22:57:05.151Z,11.98
2022-09-04T23:00:14.716Z,11.98
2022-09-04T23:03:15.320Z,11.95
2022-09-04T23:06:58.977Z,11.95
2022-09-04T23:13:57.900Z,11.88
2022-09-04T23:14:01.901Z,11.79
2022-09-04T23:15:33.294Z,11.78
2022-09-04T23:21:12.232Z,11.74
2022-09-04T23:26:44.140Z,11.58
2022-09-04T23:26:53.587Z,11.65
2022-09-04T23:27:41.327Z,11.56
2022-09-04T23:30:25.729Z,11.55
2022-09-04T23:33:37.405Z,11.56
2022-09-04T23:36:33.715Z,11.58
2022-09-04T23:39:39.872Z,11.56
2022-09-04T23:42:27.290Z,11.57
2022-09-04T23:45:12.475Z,11.55
2022-09-04T23:47:58.035Z,11.53
2022-09-04T23:50:38.545Z,11.48
2022-09-04T23:53:19.918Z,11.42
2022-09-04T23:56:02.634Z,11.34
2022-09-04T23:59:02.894Z,11.33
